createdAt,value
2018-10-07T00:00:24.127Z,2.67
2018-10-07T00:02:52.222Z,2.17
2018-10-07T00:05:20.298Z,2.50
2018-10-07T00:07:48.370Z,2.27
2018-10-07T00:10:16.446Z,3.07
2018-10-07T00:12:44.537Z,4.60
2018-10-07T00:15:12.606Z,2.40
2018-10-07T00:17:40.646Z,2.00
2018-10-07T00:20:08.717Z,4.97
2018-10-07T00:22:37.410Z,2.30
2018-10-07T00:25:05.475Z,3.37
2018-10-07T00:27:33.566Z,3.23
2018-10-07T00:30:01.658Z,2.03
2018-10-07T00:32:29.726Z,1.83
2018-10-07T00:34:57.918Z,1.93
2018-10-07T00:37:25.993Z,2.17
2018-10-07T00:39:54.060Z,1.87
2018-10-07T00:42:22.122Z,4.70
2018-10-07T00:44:50.230Z,4.27
2018-10-07T00:47:18.312Z,3.27
2018-10-07T00:49:46.398Z,2.23
2018-10-07T00:52:14.465Z,2.23
2018-10-07T00:54:43.438Z,2.93
2018-10-07T00:57:11.502Z,3.97
2018-10-07T00:59:39.568Z,1.73
2018-10-07T01:02:07.647Z,2.53
2018-10-07T01:04:35.718Z,3.43
2018-10-07T01:07:03.822Z,2.33
2018-10-07T01:09:31.914Z,1.53
2018-10-07T01:12:00.007Z,1.50
2018-10-07T01:14:28.114Z,3.53
2018-10-07T01:16:56.198Z,1.90
2018-10-07T01:19:24.293Z,1.77
2018-10-07T01:21:52.403Z,2.77
2018-10-07T01:24:20.498Z,1.87
2018-10-07T01:26:48.555Z,3.07
2018-10-07T01:29:17.051Z,2.07
2018-10-07T01:31:45.111Z,2.67
2018-10-07T01:34:13.170Z,1.73
2018-10-07T01:36:41.226Z,1.20
2018-10-07T01:39:10.676Z,3.57
2018-10-07T01:41:38.783Z,3.80
2018-10-07T01:44:06.830Z,1.47
2018-10-07T01:46:34.875Z,1.87
2018-10-07T01:49:02.962Z,1.80
2018-10-07T01:51:31.218Z,2.20
2018-10-07T01:53:59.346Z,1.90
2018-10-07T01:56:27.436Z,1.13
2018-10-07T01:58:55.558Z,1.73
2018-10-07T02:01:23.786Z,1.17
2018-10-07T02:03:52.710Z,4.20
2018-10-07T02:06:20.793Z,2.13
2018-10-07T02:08:48.875Z,2.33
2018-10-07T02:11:16.961Z,2.33
2018-10-07T02:13:45.096Z,1.13
2018-10-07T02:16:13.134Z,1.47
2018-10-07T02:18:41.210Z,1.00
2018-10-07T02:21:09.292Z,1.60
2018-10-07T02:23:37.362Z,1.47
2018-10-07T02:26:05.512Z,1.73
2018-10-07T02:28:33.598Z,2.93
2018-10-07T02:31:01.751Z,2.30
2018-10-07T02:33:29.862Z,1.87
2018-10-07T02:35:57.934Z,1.53
2018-10-07T02:38:26.068Z,1.07
2018-10-07T02:40:54.158Z,1.17
2018-10-07T02:43:22.232Z,1.23
2018-10-07T02:45:50.326Z,0.60
2018-10-07T02:48:18.395Z,1.63
2018-10-07T02:50:46.469Z,1.70
2018-10-07T02:53:14.629Z,3.33
2018-10-07T02:55:42.663Z,1.10
2018-10-07T02:58:10.718Z,4.13
2018-10-07T03:00:38.846Z,0.87
2018-10-07T03:03:06.947Z,2.43
2018-10-07T03:05:35.026Z,3.93
2018-10-07T03:08:03.129Z,1.33
2018-10-07T03:10:31.206Z,1.43
2018-10-07T03:12:59.267Z,1.33
2018-10-07T03:15:27.330Z,1.00
2018-10-07T03:17:55.463Z,2.50
2018-10-07T03:20:23.474Z,0.40
2018-10-07T03:22:51.546Z,1.60
2018-10-07T03:25:19.638Z,1.23
2018-10-07T03:27:47.734Z,2.37
2018-10-07T03:30:15.790Z,2.20
2018-10-07T03:32:43.858Z,1.73
2018-10-07T03:37:47.233Z,0.70
2018-10-07T03:40:15.285Z,2.03
2018-10-07T03:42:43.359Z,0.60
2018-10-07T03:45:11.406Z,1.23
2018-10-07T03:47:39.482Z,1.47
2018-10-07T03:50:07.582Z,1.93
2018-10-07T03:52:35.656Z,1.77
2018-10-07T03:55:03.730Z,2.30
2018-10-07T03:57:31.774Z,0.63
2018-10-07T04:00:00.338Z,0.90
2018-10-07T04:02:28.423Z,1.37
2018-10-07T04:04:56.506Z,0.40
2018-10-07T04:07:24.675Z,1.10
2018-10-07T04:09:52.762Z,0.60
2018-10-07T04:12:20.944Z,1.13
2018-10-07T04:14:49.031Z,1.50
2018-10-07T04:17:17.110Z,0.97
2018-10-07T04:19:45.162Z,1.87
2018-10-07T04:22:13.257Z,0.43
2018-10-07T04:24:41.392Z,1.33
2018-10-07T04:27:09.504Z,0.43
2018-10-07T04:29:37.563Z,1.27
2018-10-07T04:32:05.616Z,1.33
2018-10-07T04:34:33.695Z,0.40
2018-10-07T04:37:01.757Z,2.00
2018-10-07T04:39:29.890Z,2.87
2018-10-07T04:41:57.982Z,0.67
2018-10-07T04:44:26.063Z,0.63
2018-10-07T04:46:54.143Z,2.00
2018-10-07T04:49:22.216Z,1.50
2018-10-07T04:54:25.556Z,1.03
2018-10-07T04:56:53.638Z,1.63
2018-10-07T04:59:21.741Z,0.70
2018-10-07T05:01:49.795Z,1.97
2018-10-07T05:04:17.954Z,0.60
2018-10-07T05:06:46.064Z,1.13
2018-10-07T05:09:14.151Z,1.43
2018-10-07T05:11:42.442Z,1.77
2018-10-07T05:14:11.270Z,1.17
2018-10-07T05:16:43.948Z,0.77
2018-10-07T05:19:12.078Z,0.83
2018-10-07T05:21:40.151Z,2.33
2018-10-07T05:24:08.222Z,0.63
2018-10-07T05:26:36.318Z,0.87
2018-10-07T05:29:04.391Z,0.80
2018-10-07T05:31:32.463Z,2.37
2018-10-07T05:34:00.566Z,0.73
2018-10-07T05:36:28.680Z,0.60
2018-10-07T05:38:56.791Z,1.00
2018-10-07T05:41:24.876Z,0.60
2018-10-07T05:43:52.984Z,0.30
2018-10-07T05:46:21.052Z,0.97
2018-10-07T05:48:49.203Z,0.53
2018-10-07T05:51:17.275Z,0.77
2018-10-07T05:53:45.359Z,0.63
2018-10-07T05:56:13.465Z,0.60
2018-10-07T05:58:41.763Z,0.73
2018-10-07T06:01:20.180Z,2.40
2018-10-07T06:04:26.502Z,0.33
2018-10-07T06:06:55.258Z,0.80
2018-10-07T06:09:26.619Z,2.90
2018-10-07T06:11:55.262Z,0.57
2018-10-07T06:14:34.639Z,3.10
2018-10-07T06:17:03.215Z,1.87
2018-10-07T06:19:31.636Z,1.13
2018-10-07T06:22:00.075Z,2.73
2018-10-07T06:24:28.250Z,0.63
2018-10-07T06:26:56.306Z,0.50
2018-10-07T06:29:25.213Z,1.43
2018-10-07T06:31:53.560Z,1.50
2018-10-07T06:34:21.836Z,1.17
2018-10-07T06:36:49.940Z,1.83
2018-10-07T06:39:17.994Z,1.23
2018-10-07T06:41:46.346Z,0.40
2018-10-07T06:44:14.443Z,0.80
2018-10-07T06:46:42.573Z,4.33
2018-10-07T06:49:10.691Z,3.70
2018-10-07T06:51:38.800Z,1.30
2018-10-07T06:54:06.979Z,2.83
2018-10-07T06:56:35.321Z,1.73
2018-10-07T06:59:03.407Z,1.30
2018-10-07T07:01:31.635Z,1.27
2018-10-07T07:03:59.732Z,2.00
2018-10-07T07:06:27.854Z,0.17
2018-10-07T07:08:56.009Z,2.20
2018-10-07T07:11:24.104Z,1.23
2018-10-07T07:13:52.186Z,0.77
2018-10-07T07:16:20.283Z,0.80
2018-10-07T07:18:48.475Z,0.97
2018-10-07T07:21:16.540Z,2.27
2018-10-07T07:23:44.622Z,2.40
2018-10-07T07:26:12.714Z,3.23
2018-10-07T07:28:40.782Z,1.03
2018-10-07T07:31:08.886Z,3.47
2018-10-07T07:33:36.986Z,0.47
2018-10-07T07:36:05.055Z,1.33
2018-10-07T07:38:33.127Z,3.03
2018-10-07T07:41:01.212Z,1.60
2018-10-07T07:43:29.298Z,3.20
2018-10-07T07:45:57.338Z,0.70
2018-10-07T07:48:25.398Z,2.33
2018-10-07T07:50:53.470Z,0.93
2018-10-07T07:53:21.570Z,1.53
2018-10-07T07:55:49.670Z,0.20
2018-10-07T07:58:17.786Z,1.73
2018-10-07T08:00:45.843Z,2.13
2018-10-07T08:03:13.922Z,1.07
2018-10-07T08:05:42.019Z,0.80
2018-10-07T08:08:10.088Z,0.83
2018-10-07T08:10:38.138Z,0.60
2018-10-07T08:13:06.347Z,1.47
2018-10-07T08:15:34.471Z,2.63
2018-10-07T08:18:02.564Z,0.97
2018-10-07T08:20:30.663Z,2.20
2018-10-07T08:22:58.770Z,1.33
2018-10-07T08:25:26.847Z,3.07
2018-10-07T08:27:54.937Z,4.00
2018-10-07T08:30:23.015Z,1.30
2018-10-07T08:32:51.136Z,1.37
2018-10-07T08:35:19.387Z,1.63
2018-10-07T08:37:47.327Z,3.83
2018-10-07T08:40:15.421Z,2.60
2018-10-07T08:42:43.507Z,1.57
2018-10-07T08:45:11.546Z,2.87
2018-10-07T08:47:39.610Z,1.93
2018-10-07T08:50:07.737Z,1.50
2018-10-07T08:52:35.987Z,4.43
2018-10-07T08:55:04.142Z,5.93
2018-10-07T08:57:32.258Z,1.33
2018-10-07T09:00:00.428Z,6.27
2018-10-07T09:02:28.626Z,5.33
2018-10-07T09:04:56.751Z,4.93
2018-10-07T09:07:24.874Z,3.77
2018-10-07T09:09:53.059Z,3.40
2018-10-07T09:12:21.598Z,4.07
2018-10-07T09:14:50.025Z,5.33
2018-10-07T09:17:18.331Z,4.03
2018-10-07T09:19:46.936Z,7.47
2018-10-07T09:22:15.287Z,5.23
2018-10-07T09:24:43.667Z,8.20
2018-10-07T09:27:12.083Z,2.20
2018-10-07T09:29:40.076Z,4.57
2018-10-07T09:32:08.221Z,3.63
2018-10-07T09:34:37.202Z,4.73
2018-10-07T09:37:05.982Z,1.20
2018-10-07T09:39:34.182Z,2.80
2018-10-07T09:42:02.505Z,4.80
2018-10-07T09:44:30.833Z,7.73
2018-10-07T09:47:00.132Z,1.27
2018-10-07T09:49:29.387Z,8.50
2018-10-07T09:51:59.041Z,3.67
2018-10-07T09:54:27.239Z,2.40
2018-10-07T09:56:55.362Z,1.43
2018-10-07T09:59:23.488Z,6.23
2018-10-07T10:01:51.678Z,5.63
2018-10-07T10:04:19.988Z,10.43
2018-10-07T10:06:48.254Z,7.67
2018-10-07T10:09:16.555Z,2.57
2018-10-07T10:11:44.825Z,4.23
2018-10-07T10:14:13.244Z,3.27
2018-10-07T10:16:50.047Z,1.70
2018-10-07T10:19:25.571Z,3.37
2018-10-07T10:22:07.529Z,4.77
2018-10-07T10:24:47.086Z,3.10
2018-10-07T10:27:26.379Z,3.87
2018-10-07T10:29:57.540Z,3.60
2018-10-07T10:34:41.384Z,5.27
2018-10-07T10:37:09.908Z,5.50
2018-10-07T10:39:46.937Z,5.37
2018-10-07T10:42:26.304Z,2.50
2018-10-07T10:44:57.327Z,3.23
2018-10-07T10:47:31.038Z,4.53
2018-10-07T10:50:08.806Z,3.77
2018-10-07T10:52:44.316Z,3.40
2018-10-07T10:55:23.938Z,3.93
2018-10-07T10:57:54.919Z,2.70
2018-10-07T11:00:25.682Z,2.20
2018-10-07T11:05:03.617Z,6.43
2018-10-07T11:08:11.955Z,3.67
2018-10-07T11:10:56.386Z,2.03
2018-10-07T11:13:31.254Z,1.10
2018-10-07T11:16:03.731Z,4.80
2018-10-07T11:18:53.047Z,4.83
2018-10-07T11:23:33.001Z,1.60
2018-10-07T11:26:04.155Z,1.10
2018-10-07T11:28:41.030Z,2.10
2018-10-07T11:31:47.491Z,2.60
2018-10-07T11:35:30.051Z,5.80
2018-10-07T11:38:04.258Z,16.53
2018-10-07T11:40:47.573Z,10.63
2018-10-07T11:43:27.319Z,7.50
2018-10-07T11:46:05.245Z,15.63
2018-10-07T11:48:42.958Z,11.77
2018-10-07T11:55:04.305Z,9.80
2018-10-07T11:57:32.490Z,14.10
2018-10-07T12:00:00.922Z,12.27
2018-10-07T12:02:29.145Z,6.63
2018-10-07T12:04:57.287Z,7.37
2018-10-07T12:07:26.906Z,6.57
2018-10-07T12:09:55.011Z,9.80
2018-10-07T12:12:23.148Z,6.20
2018-10-07T12:14:51.431Z,3.40
2018-10-07T12:17:19.538Z,2.60
2018-10-07T12:19:47.635Z,3.77
2018-10-07T12:22:23.301Z,3.57
2018-10-07T12:24:51.599Z,3.60
2018-10-07T12:27:19.787Z,3.63
2018-10-07T12:29:47.890Z,3.07
2018-10-07T12:32:16.014Z,5.80
2018-10-07T12:34:44.185Z,2.90
2018-10-07T12:37:12.339Z,8.47
2018-10-07T12:39:40.444Z,3.00
2018-10-07T12:42:08.558Z,1.37
2018-10-07T12:44:36.730Z,6.33
2018-10-07T12:47:05.083Z,2.07
2018-10-07T12:49:33.210Z,2.90
2018-10-07T12:52:01.311Z,1.23
2018-10-07T12:54:29.557Z,3.40
2018-10-07T12:56:57.683Z,3.13
2018-10-07T12:59:25.996Z,2.80
2018-10-07T13:01:54.224Z,1.73
2018-10-07T13:04:22.387Z,1.77
2018-10-07T13:06:50.526Z,1.57
2018-10-07T13:09:18.684Z,3.90
2018-10-07T13:11:46.822Z,3.07
2018-10-07T13:14:14.963Z,2.53
2018-10-07T13:16:43.136Z,1.83
2018-10-07T13:19:11.293Z,6.87
2018-10-07T13:21:39.448Z,13.33
2018-10-07T13:24:09.501Z,14.20
2018-10-07T13:26:39.627Z,10.13
2018-10-07T13:29:07.827Z,12.50
2018-10-07T13:31:35.928Z,26.03
2018-10-07T13:34:04.002Z,10.47
2018-10-07T13:36:32.070Z,14.43
2018-10-07T13:39:00.153Z,21.10
2018-10-07T13:41:28.254Z,13.17
2018-10-07T13:43:56.318Z,15.57
2018-10-07T13:46:24.450Z,11.23
2018-10-07T13:48:52.529Z,11.33
2018-10-07T13:51:20.608Z,12.17
2018-10-07T13:53:48.714Z,11.00
2018-10-07T13:56:16.782Z,16.67
2018-10-07T13:58:44.875Z,7.33
2018-10-07T14:01:13.026Z,10.67
2018-10-07T14:03:41.122Z,4.87
2018-10-07T14:06:09.200Z,8.47
2018-10-07T14:08:37.270Z,5.53
2018-10-07T14:11:05.377Z,7.07
2018-10-07T14:13:33.478Z,3.30
2018-10-07T14:16:01.587Z,4.43
2018-10-07T14:18:29.702Z,4.77
2018-10-07T14:20:57.762Z,7.27
2018-10-07T14:23:25.846Z,2.93
2018-10-07T14:25:53.926Z,3.33
2018-10-07T14:28:22.001Z,4.03
2018-10-07T14:30:50.136Z,6.67
2018-10-07T14:33:18.194Z,1.87
2018-10-07T14:35:46.562Z,3.53
2018-10-07T14:38:14.640Z,2.20
2018-10-07T14:40:43.053Z,1.53
2018-10-07T14:43:11.129Z,2.70
2018-10-07T14:45:39.473Z,1.93
2018-10-07T14:48:07.753Z,3.73
2018-10-07T14:50:36.058Z,3.73
2018-10-07T14:53:04.126Z,2.53
2018-10-07T14:55:32.321Z,1.60
2018-10-07T14:58:00.430Z,1.93
2018-10-07T15:00:28.495Z,2.10
2018-10-07T15:02:56.597Z,2.90
2018-10-07T15:05:24.666Z,3.67
2018-10-07T15:07:52.769Z,1.10
2018-10-07T15:10:20.856Z,1.00
2018-10-07T15:12:49.062Z,2.30
2018-10-07T15:15:17.150Z,3.17
2018-10-07T15:17:45.242Z,3.83
2018-10-07T15:20:13.322Z,1.13
2018-10-07T15:22:41.491Z,1.77
2018-10-07T15:25:09.612Z,1.87
2018-10-07T15:27:37.700Z,2.97
2018-10-07T15:30:05.942Z,1.33
2018-10-07T15:32:34.078Z,2.13
2018-10-07T15:35:02.159Z,1.13
2018-10-07T15:37:30.319Z,1.10
2018-10-07T15:39:58.378Z,1.63
2018-10-07T15:42:26.491Z,1.57
2018-10-07T15:44:54.582Z,2.77
2018-10-07T15:47:22.654Z,2.43
2018-10-07T15:49:50.724Z,1.00
2018-10-07T15:52:19.003Z,2.47
2018-10-07T15:54:47.099Z,0.70
2018-10-07T15:57:15.165Z,0.83
2018-10-07T15:59:43.230Z,1.40
2018-10-07T16:02:11.312Z,1.27
2018-10-07T16:04:39.375Z,1.90
2018-10-07T16:07:07.446Z,1.13
2018-10-07T16:09:35.537Z,0.80
2018-10-07T16:12:03.627Z,3.07
2018-10-07T16:14:31.694Z,1.27
2018-10-07T16:16:59.830Z,6.33
2018-10-07T16:19:27.902Z,2.40
2018-10-07T16:21:55.995Z,3.87
2018-10-07T16:24:24.341Z,88.07
2018-10-07T16:26:53.176Z,72.50
2018-10-07T16:29:21.238Z,51.03
2018-10-07T16:31:49.351Z,47.03
2018-10-07T16:34:17.447Z,39.70
2018-10-07T16:36:45.556Z,31.73
2018-10-07T16:39:13.780Z,29.93
2018-10-07T16:41:41.846Z,27.47
2018-10-07T16:44:09.966Z,19.90
2018-10-07T16:46:38.144Z,20.30
2018-10-07T16:49:06.246Z,22.53
2018-10-07T16:51:34.384Z,26.07
2018-10-07T16:54:02.623Z,17.93
2018-10-07T16:56:30.763Z,17.77
2018-10-07T16:58:58.851Z,12.80
2018-10-07T17:01:27.083Z,18.63
2018-10-07T17:03:55.226Z,13.27
2018-10-07T17:06:23.240Z,13.73
2018-10-07T17:08:51.451Z,10.50
2018-10-07T17:11:19.559Z,8.03
2018-10-07T17:13:47.647Z,7.03
2018-10-07T17:16:15.778Z,8.23
2018-10-07T17:18:43.875Z,6.67
2018-10-07T17:21:12.007Z,6.57
2018-10-07T17:23:40.131Z,4.23
2018-10-07T17:26:08.219Z,4.90
2018-10-07T17:28:36.330Z,4.00
2018-10-07T17:31:04.386Z,5.20
2018-10-07T17:33:32.474Z,6.07
2018-10-07T17:36:00.581Z,4.53
2018-10-07T17:38:28.686Z,3.17
2018-10-07T17:40:56.775Z,6.07
2018-10-07T17:43:24.865Z,6.60
2018-10-07T17:45:52.918Z,7.10
2018-10-07T17:48:21.323Z,7.30
2018-10-07T17:50:49.153Z,8.00
2018-10-07T17:53:17.240Z,4.50
2018-10-07T17:55:45.340Z,3.70
2018-10-07T17:58:13.416Z,2.37
2018-10-07T18:00:41.498Z,3.33
2018-10-07T18:03:09.639Z,4.40
2018-10-07T18:05:37.662Z,2.40
2018-10-07T18:08:05.810Z,1.97
2018-10-07T18:10:33.911Z,4.53
2018-10-07T18:13:02.064Z,8.43
2018-10-07T18:15:30.199Z,1.53
2018-10-07T18:17:58.308Z,1.80
2018-10-07T18:20:26.370Z,3.70
2018-10-07T18:22:54.487Z,5.10
2018-10-07T18:25:22.607Z,2.57
2018-10-07T18:27:50.774Z,4.87
2018-10-07T18:30:18.906Z,6.33
2018-10-07T18:32:47.033Z,2.90
2018-10-07T18:35:15.114Z,3.13
2018-10-07T18:37:43.259Z,3.90
2018-10-07T18:40:11.403Z,1.83
2018-10-07T18:42:39.518Z,4.63
2018-10-07T18:45:07.686Z,3.20
2018-10-07T18:47:35.829Z,3.50
2018-10-07T18:50:04.088Z,4.53
2018-10-07T18:52:32.234Z,2.17
2018-10-07T18:55:00.369Z,2.20
2018-10-07T18:57:28.457Z,1.43
2018-10-07T18:59:56.685Z,5.50
2018-10-07T19:02:24.896Z,2.37
2018-10-07T19:04:52.991Z,3.40
2018-10-07T19:07:21.196Z,3.03
2018-10-07T19:09:49.351Z,3.63
2018-10-07T19:12:17.613Z,3.20
2018-10-07T19:14:45.807Z,5.33
2018-10-07T19:17:14.049Z,5.57
2018-10-07T19:19:42.347Z,3.23
2018-10-07T19:22:10.603Z,2.97
2018-10-07T19:24:38.775Z,8.10
2018-10-07T19:27:07.169Z,4.43
2018-10-07T19:29:35.306Z,3.57
2018-10-07T19:32:03.711Z,4.33
2018-10-07T19:34:31.827Z,7.03
2018-10-07T19:39:36.933Z,6.53
2018-10-07T19:42:05.068Z,12.37
2018-10-07T19:44:33.303Z,5.90
2018-10-07T19:47:01.570Z,6.57
2018-10-07T19:49:29.722Z,8.67
2018-10-07T19:51:57.947Z,6.77
2018-10-07T19:54:26.167Z,8.17
2018-10-07T19:56:54.539Z,9.43
2018-10-07T19:59:22.765Z,6.20
2018-10-07T20:01:50.904Z,4.63
2018-10-07T20:04:19.138Z,5.40
2018-10-07T20:06:47.335Z,7.33
2018-10-07T20:09:15.598Z,5.67
2018-10-07T20:11:43.967Z,5.60
2018-10-07T20:14:12.301Z,10.50
2018-10-07T20:16:40.455Z,9.97
2018-10-07T20:19:08.684Z,6.33
2018-10-07T20:21:36.889Z,6.10
2018-10-07T20:24:05.252Z,5.43
2018-10-07T20:26:33.495Z,5.03
2018-10-07T20:29:01.936Z,3.60
2018-10-07T20:31:30.135Z,5.47
2018-10-07T20:33:58.492Z,5.53
2018-10-07T20:36:26.670Z,4.50
2018-10-07T20:38:54.907Z,5.80
2018-10-07T20:41:23.001Z,6.07
2018-10-07T20:43:51.225Z,8.60
2018-10-07T20:46:19.450Z,37.87
2018-10-07T20:48:47.631Z,26.37
2018-10-07T20:51:15.710Z,22.40
2018-10-07T20:53:44.018Z,26.30
2018-10-07T20:56:12.134Z,24.93
2018-10-07T20:58:40.338Z,31.33
2018-10-07T21:01:08.460Z,19.83
2018-10-07T21:03:36.618Z,27.53
2018-10-07T21:06:04.941Z,25.37
2018-10-07T21:08:33.106Z,24.73
2018-10-07T21:11:01.240Z,27.20
2018-10-07T21:13:29.573Z,32.70
2018-10-07T21:15:57.802Z,23.43
2018-10-07T21:18:26.092Z,25.50
2018-10-07T21:20:54.250Z,21.90
2018-10-07T21:23:22.398Z,27.10
2018-10-07T21:25:50.587Z,21.17
2018-10-07T21:28:18.690Z,19.47
2018-10-07T21:30:46.999Z,25.17
2018-10-07T21:33:15.162Z,24.20
2018-10-07T21:38:20.236Z,15.77
2018-10-07T21:40:48.462Z,15.87
2018-10-07T21:43:16.615Z,20.67
2018-10-07T21:45:44.910Z,17.23
2018-10-07T21:48:13.104Z,16.87
2018-10-07T21:50:41.399Z,17.30
2018-10-07T21:53:09.507Z,19.67
2018-10-07T21:55:37.630Z,21.73
2018-10-07T21:58:05.751Z,13.83
2018-10-07T22:00:33.890Z,20.03
2018-10-07T22:03:02.011Z,15.60
2018-10-07T22:05:30.198Z,17.83
2018-10-07T22:07:58.443Z,14.80
2018-10-07T22:10:26.708Z,15.13
2018-10-07T22:12:54.778Z,12.37
2018-10-07T22:15:23.103Z,14.10
2018-10-07T22:17:51.239Z,17.43
2018-10-07T22:20:19.534Z,13.33
2018-10-07T22:22:47.753Z,12.37
2018-10-07T22:25:15.830Z,14.93
2018-10-07T22:27:44.058Z,11.83
2018-10-07T22:30:12.295Z,10.90
2018-10-07T22:32:40.614Z,13.13
2018-10-07T22:35:08.882Z,11.27
2018-10-07T22:37:37.280Z,12.90
2018-10-07T22:40:05.707Z,8.60
2018-10-07T22:42:33.875Z,9.95
2018-10-07T22:45:01.994Z,10.17
2018-10-07T22:47:30.126Z,13.77
2018-10-07T22:49:58.438Z,12.83
2018-10-07T22:52:26.662Z,8.50
2018-10-07T22:54:54.899Z,12.30
2018-10-07T22:57:23.119Z,9.90
2018-10-07T22:59:51.395Z,8.43
2018-10-07T23:02:19.834Z,9.90
2018-10-07T23:04:48.013Z,8.47
2018-10-07T23:07:16.323Z,13.37
2018-10-07T23:09:44.469Z,7.10
2018-10-07T23:12:12.658Z,7.03
2018-10-07T23:14:40.943Z,10.23
2018-10-07T23:17:09.021Z,7.83
2018-10-07T23:19:37.222Z,12.93
2018-10-07T23:22:05.273Z,8.23
2018-10-07T23:24:33.387Z,6.47
2018-10-07T23:27:01.597Z,8.77
2018-10-07T23:29:29.774Z,7.10
2018-10-07T23:31:57.986Z,7.67
2018-10-07T23:34:26.162Z,8.13
2018-10-07T23:36:54.238Z,7.47
2018-10-07T23:39:22.294Z,9.37
2018-10-07T23:41:50.487Z,13.30
2018-10-07T23:44:18.606Z,6.17
2018-10-07T23:46:46.778Z,8.40
2018-10-07T23:49:14.925Z,8.07
2018-10-07T23:51:43.243Z,8.67
2018-10-07T23:54:11.226Z,6.50
2018-10-07T23:56:39.625Z,4.57
2018-10-07T23:59:07.771Z,7.80
